Time;durP1;ratioP1;P1;durP2;ratioP2;P2;SDS_P1;SDS_P2;PMS_P1;PMS_P2;Temp;Humidity;BMP_temperature;BMP_pressure;BME280_temperature;BME280_humidity;BME280_pressure;Samples;Min_cycle;Max_cycle;Signal;HPM_P1;HPM_P2
2021/03/17 00:00:23;;;;;;;12.10;8.70;;;;;;;2.91;64.40;101453.50;682217;28;161622;-63
2021/03/17 00:01:05;;;;;;;11.35;8.50;;;;;;;2.93;64.57;101456.06;684759;28;62220;-62
2021/03/17 00:01:46;;;;;;;11.95;8.75;;;;;;;2.91;64.37;101450.84;685272;28;62058;-62
2021/03/17 00:02:26;;;;;;;10.73;8.07;;;;;;;2.90;64.61;101449.16;683127;28;130377;-62
2021/03/17 00:03:07;;;;;;;12.20;8.30;;;;;;;2.89;64.38;101450.94;686246;28;59930;-62
2021/03/17 00:03:47;;;;;;;9.60;7.88;;;;;;;2.92;64.56;101451.72;682738;28;137377;-60
2021/03/17 00:04:27;;;;;;;9.35;7.72;;;;;;;2.90;64.57;101457.16;682554;28;131761;-62
2021/03/17 00:05:08;;;;;;;10.93;7.78;;;;;;;2.91;64.71;101458.00;685269;28;62299;-61
2021/03/17 00:05:49;;;;;;;10.30;8.18;;;;;;;2.89;64.55;101458.09;683662;28;137664;-60
2021/03/17 00:06:28;;;;;;;8.68;7.43;;;;;;;2.90;64.67;101459.81;684259;28;89645;-59
2021/03/17 00:07:09;;;;;;;8.38;7.05;;;;;;;2.87;64.57;101450.22;682629;28;136628;-63
2021/03/17 00:07:50;;;;;;;10.77;7.93;;;;;;;2.94;64.77;101458.63;682856;28;131784;-57
2021/03/17 00:08:30;;;;;;;9.40;7.57;;;;;;;2.93;64.71;101458.72;685565;28;62353;-63
2021/03/17 00:09:11;;;;;;;10.93;7.67;;;;;;;2.91;64.75;101453.50;682548;28;153116;-63
2021/03/17 00:09:50;;;;;;;9.75;7.97;;;;;;;2.91;64.71;101458.00;682942;28;137143;-63
2021/03/17 00:10:37;;;;;;;9.00;7.78;;;;;;;2.90;64.63;101457.16;682774;28;137768;-62
2021/03/17 00:11:17;;;;;;;9.77;7.85;;;;;;;2.88;64.66;101453.72;682825;28;135995;-63
2021/03/17 00:11:57;;;;;;;10.57;7.77;;;;;;;2.88;65.09;101451.94;682076;28;160760;-63
2021/03/17 00:12:37;;;;;;;9.82;7.32;;;;;;;2.95;64.88;101449.66;684028;28;105228;-62
2021/03/17 00:13:18;;;;;;;10.35;7.68;;;;;;;2.92;64.75;101457.88;683197;28;161473;-63
2021/03/17 00:13:58;;;;;;;9.10;7.45;;;;;;;2.94;64.73;101455.94;683057;28;137607;-62
2021/03/17 00:14:38;;;;;;;8.82;7.35;;;;;;;2.94;64.71;101450.63;682296;28;137542;-59
2021/03/17 00:15:19;;;;;;;8.70;7.60;;;;;;;2.89;64.47;101450.09;683664;28;102923;-62
2021/03/17 00:16:00;;;;;;;10.52;7.45;;;;;;;2.89;64.58;101453.59;682971;28;136032;-64
2021/03/17 00:16:40;;;;;;;9.20;7.45;;;;;;;2.90;64.62;101451.81;682827;28;138612;-61
2021/03/17 00:17:19;;;;;;;8.70;7.80;;;;;;;2.90;64.65;101451.81;683353;28;116953;-63
2021/03/17 00:18:00;;;;;;;9.55;7.50;;;;;;;2.91;64.68;101450.84;682737;28;136443;-62
2021/03/17 00:18:39;;;;;;;8.70;7.57;;;;;;;2.89;64.56;101453.59;682489;28;138551;-61
2021/03/17 00:19:19;;;;;;;7.85;6.85;;;;;;;2.90;64.76;101457.16;682833;28;136030;-61
2021/03/17 00:19:59;;;;;;;10.10;7.68;;;;;;;2.93;64.93;101456.06;682810;28;137246;-63
2021/03/17 00:20:40;;;;;;;8.70;7.40;;;;;;;2.92;64.78;101460.56;683775;28;137567;-63
2021/03/17 00:21:20;;;;;;;10.40;7.72;;;;;;;2.94;64.85;101458.63;685403;28;66245;-62
2021/03/17 00:21:59;;;;;;;8.73;7.43;;;;;;;2.94;64.90;101458.63;682514;28;138391;-63
2021/03/17 00:22:39;;;;;;;9.90;7.63;;;;;;;2.93;64.81;101456.06;682836;28;137717;-63
2021/03/17 00:23:20;;;;;;;8.88;7.15;;;;;;;2.92;64.69;101459.72;685597;28;62509;-63
2021/03/17 00:24:00;;;;;;;8.82;7.30;;;;;;;2.93;64.91;101456.06;684625;28;87868;-61
2021/03/17 00:24:40;;;;;;;11.52;7.30;;;;;;;2.91;64.70;101455.31;682901;28;129215;-62
2021/03/17 00:25:20;;;;;;;8.85;6.85;;;;;;;2.89;64.73;101450.94;683515;28;128634;-63
2021/03/17 00:26:00;;;;;;;9.00;6.88;;;;;;;2.87;64.75;101452.88;682996;28;131637;-63
2021/03/17 00:26:40;;;;;;;8.25;6.85;;;;;;;2.84;64.83;101447.75;683680;28;120005;-62
2021/03/17 00:27:20;;;;;;;8.48;7.25;;;;;;;2.87;65.03;101454.69;684404;28;83637;-63
2021/03/17 00:28:01;;;;;;;8.32;7.05;;;;;;;2.88;65.20;101449.25;683009;28;133350;-63
2021/03/17 00:28:41;;;;;;;8.98;6.63;;;;;;;2.86;64.98;101451.16;683364;28;128165;-62
2021/03/17 00:29:20;;;;;;;8.10;6.65;;;;;;;2.85;65.04;101453.94;684415;28;89201;-63
2021/03/17 00:30:07;;;;;;;7.57;6.65;;;;;;;2.82;65.07;101456.81;682989;28;135438;-63
2021/03/17 00:30:47;;;;;;;8.50;6.78;;;;;;;2.82;65.02;101454.16;683794;28;105928;-63
2021/03/17 00:31:27;;;;;;;8.40;6.63;;;;;;;2.82;65.33;101457.69;682827;28;138604;-63
2021/03/17 00:32:07;;;;;;;7.13;6.22;;;;;;;2.82;65.32;101454.16;683500;28;127408;-62
2021/03/17 00:32:47;;;;;;;6.95;6.20;;;;;;;2.78;65.23;101447.34;684125;28;137639;-62
2021/03/17 00:33:27;;;;;;;7.82;7.00;;;;;;;2.77;65.37;101451.81;682887;28;136257;-63
2021/03/17 00:34:07;;;;;;;13.15;8.15;;;;;;;2.76;65.34;101449.25;682677;28;137690;-62
2021/03/17 00:34:47;;;;;;;8.93;7.25;;;;;;;2.80;65.54;101458.75;681410;28;180720;-62
2021/03/17 00:35:28;;;;;;;9.65;7.45;;;;;;;2.81;65.75;101452.47;685350;28;60872;-61
2021/03/17 00:36:08;;;;;;;9.35;7.47;;;;;;;2.81;65.39;101455.97;682969;28;137536;-61
2021/03/17 00:36:47;;;;;;;8.85;7.30;;;;;;;2.81;65.40;101447.13;682629;28;137575;-61
2021/03/17 00:37:27;;;;;;;9.63;7.03;;;;;;;2.78;65.20;101450.88;682425;28;137956;-63
2021/03/17 00:38:08;;;;;;;10.10;7.90;;;;;;;2.81;65.30;101447.13;683130;28;130352;-61
2021/03/17 00:38:48;;;;;;;8.95;6.75;;;;;;;2.79;65.41;101449.91;685417;28;61561;-60
2021/03/17 00:39:28;;;;;;;8.73;7.47;;;;;;;2.79;65.41;101455.25;682796;28;137731;-58
2021/03/17 00:40:10;;;;;;;9.35;7.25;;;;;;;2.81;65.41;101450.66;686173;28;59405;-62
2021/03/17 00:40:50;;;;;;;10.65;7.20;;;;;;;2.81;65.29;101455.97;681652;28;160445;-62
2021/03/17 00:41:30;;;;;;;9.00;7.28;;;;;;;2.81;65.30;101455.13;685256;28;62582;-63
2021/03/17 00:42:10;;;;;;;10.30;6.95;;;;;;;2.80;65.39;101451.59;685170;28;61750;-62
2021/03/17 00:42:50;;;;;;;8.23;7.32;;;;;;;2.80;65.28;101446.25;682713;28;138210;-62
2021/03/17 00:43:29;;;;;;;9.35;6.90;;;;;;;2.82;65.51;101448.81;682113;28;158973;-63
2021/03/17 00:44:09;;;;;;;7.82;6.50;;;;;;;2.80;65.44;101446.25;683016;28;120477;-60
2021/03/17 00:44:49;;;;;;;9.05;6.97;;;;;;;2.80;65.35;101451.59;681776;28;167938;-64
2021/03/17 00:45:30;;;;;;;10.60;7.10;;;;;;;2.81;65.29;101455.13;682865;28;136269;-62
2021/03/17 00:46:06;;;;;;;8.57;6.75;;;;;;;2.81;65.41;101455.13;681887;28;160570;-62
2021/03/17 00:46:29;;;;;;;7.53;6.70;;;;;;;2.80;65.34;101456.09;685976;28;67464;-62
2021/03/17 00:46:57;;;;;;;9.30;7.10;;;;;;;2.75;65.20;101448.41;682593;28;136373;-62
2021/03/17 00:47:23;;;;;;;9.65;7.18;;;;;;;2.78;65.02;101452.69;683524;28;93185;-62
2021/03/17 00:47:44;;;;;;;10.18;7.22;;;;;;;2.80;65.29;101448.94;685813;28;46319;-63
2021/03/17 00:48:07;;;;;;;9.18;7.00;;;;;;;2.80;65.33;101450.75;684153;28;45211;-62
2021/03/17 00:48:28;;;;;;;8.23;7.15;;;;;;;2.81;65.36;101460.47;685223;28;42932;-62
2021/03/17 00:49:03;;;;;;;8.93;7.10;;;;;;;2.80;65.31;101453.41;681641;28;160032;-62
2021/03/17 00:49:24;;;;;;;7.63;6.80;;;;;;;2.78;65.16;101456.19;684823;28;45301;-62
2021/03/17 00:49:47;;;;;;;8.38;6.95;;;;;;;2.78;65.15;101453.53;684558;28;67479;-63
2021/03/17 00:50:13;;;;;;;9.20;7.47;;;;;;;2.78;65.26;101452.69;689314;28;22405;-62
2021/03/17 00:50:37;;;;;;;7.93;6.70;;;;;;;2.78;65.30;101455.34;683300;28;138556;-61
2021/03/17 00:50:58;;;;;;;8.60;6.63;;;;;;;2.78;65.41;101456.19;685213;28;69444;-62
2021/03/17 00:51:39;;;;;;;10.00;7.43;;;;;;;2.78;65.61;101447.34;685202;28;61225;-63
2021/03/17 00:52:18;;;;;;;8.02;7.20;;;;;;;2.79;65.71;101452.56;682797;28;137532;-63
2021/03/17 00:52:58;;;;;;;9.20;6.80;;;;;;;2.85;65.64;101449.47;682958;28;137496;-63
2021/03/17 00:53:26;;;;;;;8.82;7.32;;;;;;;2.87;65.61;101452.88;685431;28;62412;-59
2021/03/17 00:53:49;;;;;;;9.35;6.70;;;;;;;2.89;65.74;101455.44;683210;28;35407;-61
2021/03/17 00:54:10;;;;;;;8.98;7.05;;;;;;;2.91;65.58;101450.00;680289;29;41718;-61
2021/03/17 00:54:36;;;;;;;10.20;7.38;;;;;;;2.90;65.50;101451.81;674518;28;114960;-63
2021/03/17 00:55:16;;;;;;;9.20;6.88;;;;;;;2.89;65.61;101456.28;672938;29;138334;-61
2021/03/17 00:55:57;;;;;;;7.60;6.80;;;;;;;2.88;65.38;101451.06;680255;28;62051;-62
2021/03/17 00:56:29;;;;;;;8.85;7.25;;;;;;;2.87;65.37;101452.88;681037;28;137624;-61
2021/03/17 00:56:50;;;;;;;9.00;6.80;;;;;;;2.87;65.31;101457.38;683799;28;22437;-63
2021/03/17 00:57:12;;;;;;;7.63;6.40;;;;;;;2.85;65.35;101443.25;685434;28;22882;-61
2021/03/17 00:57:35;;;;;;;7.40;6.50;;;;;;;2.86;65.32;101453.00;686887;28;1352;-63
2021/03/17 00:57:57;;;;;;;8.35;6.88;;;;;;;2.84;65.27;101454.91;684485;28;1305;-61
2021/03/17 00:58:18;;;;;;;8.15;7.07;;;;;;;2.83;65.24;101454.03;684965;28;14437;-62
2021/03/17 00:58:40;;;;;;;10.07;7.18;;;;;;;2.84;65.32;101452.25;684229;28;7372;-60
2021/03/17 00:59:01;;;;;;;9.18;7.00;;;;;;;2.84;65.59;101461.09;685257;28;45402;-63
2021/03/17 00:59:22;;;;;;;8.80;6.47;;;;;;;2.86;65.41;101456.50;686728;28;23663;-62
2021/03/17 00:59:43;;;;;;;9.25;7.00;;;;;;;2.87;65.52;101444.03;686474;28;23299;-59
2021/03/17 01:00:07;;;;;;;9.20;7.07;;;;;;;2.88;65.64;101454.59;685942;28;47497;-62
2021/03/17 01:00:39;;;;;;;11.35;7.32;;;;;;;2.87;65.48;101447.53;685279;28;96249;-61
2021/03/17 01:01:00;;;;;;;9.60;7.10;;;;;;;2.88;65.28;101445.72;685844;28;39998;-61
2021/03/17 01:01:21;;;;;;;9.73;7.40;;;;;;;2.85;65.33;101443.25;686377;28;22479;-61
2021/03/17 01:01:42;;;;;;;9.85;7.50;;;;;;;2.87;65.28;101444.03;686582;28;20122;-63
2021/03/17 01:02:04;;;;;;;10.18;7.45;;;;;;;2.84;65.40;101442.41;686151;28;39102;-61
2021/03/17 01:02:25;;;;;;;10.73;7.15;;;;;;;2.85;65.26;101449.47;687034;28;1164;-62
2021/03/17 01:02:46;;;;;;;9.65;7.28;;;;;;;2.86;65.27;101444.97;686916;28;21522;-64
2021/03/17 01:03:07;;;;;;;9.30;7.20;;;;;;;2.86;65.38;101442.31;687546;28;23418;-63
2021/03/17 01:03:29;;;;;;;8.85;7.10;;;;;;;2.84;65.15;101447.75;686823;28;22385;-62
2021/03/17 01:03:50;;;;;;;8.77;7.32;;;;;;;2.84;65.30;101445.09;686038;28;44363;-62
2021/03/17 01:04:11;;;;;;;7.95;6.82;;;;;;;2.85;65.33;101440.59;687516;28;1093;-61
2021/03/17 01:04:32;;;;;;;7.53;6.60;;;;;;;2.83;65.35;101439.88;687163;28;12850;-63
2021/03/17 01:04:53;;;;;;;9.10;6.97;;;;;;;2.84;65.45;101442.41;684998;28;38219;-61
2021/03/17 01:05:14;;;;;;;8.45;6.88;;;;;;;2.81;65.24;101445.31;686735;28;23381;-63
2021/03/17 01:05:37;;;;;;;8.38;6.72;;;;;;;2.81;65.40;101442.63;686765;28;47359;-62
2021/03/17 01:05:58;;;;;;;7.80;6.72;;;;;;;2.81;65.33;101445.31;685886;28;42426;-61
2021/03/17 01:06:19;;;;;;;8.32;6.50;;;;;;;2.82;65.36;101439.03;687045;28;21540;-63
2021/03/17 01:06:40;;;;;;;9.60;6.70;;;;;;;2.82;65.37;101444.34;686245;28;21511;-62
2021/03/17 01:07:01;;;;;;;11.32;7.15;;;;;;;2.81;65.37;101445.31;686818;28;22393;-63
2021/03/17 01:07:22;;;;;;;8.20;6.93;;;;;;;2.81;65.40;101442.63;685932;28;47211;-62
2021/03/17 01:07:44;;;;;;;7.72;6.85;;;;;;;2.81;65.34;101441.81;686511;28;21630;-63
2021/03/17 01:08:06;;;;;;;8.65;7.03;;;;;;;2.80;65.69;101440.94;687496;28;22564;-61
2021/03/17 01:08:27;;;;;;;8.25;6.95;;;;;;;2.80;65.46;101443.59;686707;28;64621;-61
2021/03/17 01:08:49;;;;;;;8.48;6.80;;;;;;;2.77;65.51;101434.97;689933;28;1312;-63
2021/03/17 01:09:11;;;;;;;7.88;6.55;;;;;;;2.81;65.48;101441.81;688695;28;46304;-62
2021/03/17 01:09:32;;;;;;;7.68;6.53;;;;;;;2.80;65.43;101440.94;689880;28;23470;-59
2021/03/17 01:09:53;;;;;;;9.07;6.77;;;;;;;2.82;65.60;101443.47;690724;28;982;-61
2021/03/17 01:10:18;;;;;;;7.65;6.85;;;;;;;2.81;65.75;101442.63;688206;28;45119;-60
2021/03/17 01:10:42;;;;;;;7.03;6.32;;;;;;;2.81;65.62;101445.31;685012;28;92103;-61
2021/03/17 01:11:03;;;;;;;7.75;6.43;;;;;;;2.81;65.64;101444.47;685065;28;91017;-62
2021/03/17 01:11:24;;;;;;;8.35;7.22;;;;;;;2.81;65.63;101439.97;686973;28;23431;-62
2021/03/17 01:11:45;;;;;;;8.75;7.20;;;;;;;2.79;65.56;101439.25;686852;28;41527;-64
2021/03/17 01:12:07;;;;;;;8.68;7.10;;;;;;;2.81;65.76;101442.63;688308;28;1103;-62
2021/03/17 01:12:28;;;;;;;8.90;6.88;;;;;;;2.81;65.70;101442.63;686453;28;40518;-62
2021/03/17 01:12:49;;;;;;;8.20;6.40;;;;;;;2.82;65.72;101439.03;687471;28;22377;-63
2021/03/17 01:13:11;;;;;;;7.90;6.60;;;;;;;2.83;65.75;101442.53;687515;28;21482;-62
2021/03/17 01:13:34;;;;;;;7.50;6.47;;;;;;;2.83;65.81;101440.72;687615;28;18715;-62
2021/03/17 01:13:55;;;;;;;8.00;6.85;;;;;;;2.83;65.76;101440.72;684930;28;84655;-62
2021/03/17 01:14:16;;;;;;;9.07;7.07;;;;;;;2.82;65.80;101436.34;687911;28;6938;-62
2021/03/17 01:14:38;;;;;;;8.80;6.90;;;;;;;2.82;65.65;101438.16;687616;28;21540;-61
2021/03/17 01:14:59;;;;;;;7.47;6.32;;;;;;;2.82;65.49;101446.16;687540;28;19274;-62
2021/03/17 01:15:21;;;;;;;9.45;6.75;;;;;;;2.78;65.77;101436.69;687456;28;20702;-60
2021/03/17 01:15:44;;;;;;;10.13;7.55;;;;;;;2.80;65.43;101442.75;685205;28;67039;-63
2021/03/17 01:16:05;;;;;;;8.93;7.00;;;;;;;2.79;65.60;101441.91;686154;28;45123;-61
2021/03/17 01:16:26;;;;;;;7.95;6.50;;;;;;;2.79;65.58;101438.38;686833;28;39585;-62
2021/03/17 01:16:47;;;;;;;7.40;6.60;;;;;;;2.79;65.60;101441.03;687304;28;22390;-63
2021/03/17 01:17:09;;;;;;;7.47;6.55;;;;;;;2.78;65.67;101436.69;687568;28;23802;-63
2021/03/17 01:17:30;;;;;;;7.40;6.50;;;;;;;2.78;65.66;101442.84;687101;28;22492;-63
2021/03/17 01:17:51;;;;;;;7.63;6.40;;;;;;;2.78;65.87;101442.84;687943;28;41547;-62
2021/03/17 01:18:12;;;;;;;8.23;6.43;;;;;;;2.78;65.63;101444.69;687427;28;1925;-61
2021/03/17 01:18:34;;;;;;;7.97;6.75;;;;;;;2.78;65.76;101442.84;686977;28;23495;-61
2021/03/17 01:18:55;;;;;;;7.45;6.07;;;;;;;2.76;65.83;101430.56;686923;28;22425;-63
2021/03/17 01:19:16;;;;;;;8.13;6.28;;;;;;;2.77;65.75;101446.47;687061;28;21419;-60
2021/03/17 01:19:37;;;;;;;9.60;6.70;;;;;;;2.78;65.82;101444.69;685815;28;46340;-63
2021/03/17 01:19:58;;;;;;;8.25;6.68;;;;;;;2.77;65.77;101443.81;686601;28;22461;-61
2021/03/17 01:20:22;;;;;;;7.72;6.45;;;;;;;2.78;65.98;101442.00;688510;28;14950;-61
2021/03/17 01:20:43;;;;;;;8.00;6.60;;;;;;;2.78;65.82;101442.84;684771;28;91976;-63
2021/03/17 01:21:05;;;;;;;8.02;6.95;;;;;;;2.75;65.79;101440.41;687541;28;22412;-63
2021/03/17 01:21:26;;;;;;;8.52;6.85;;;;;;;2.75;65.73;101432.41;688908;28;46319;-62
2021/03/17 01:21:47;;;;;;;8.68;6.40;;;;;;;2.75;65.81;101443.06;689281;28;24315;-61
2021/03/17 01:22:09;;;;;;;7.43;6.40;;;;;;;2.75;65.68;101442.22;690035;28;21535;-61
2021/03/17 01:22:30;;;;;;;9.30;6.97;;;;;;;2.74;65.85;101441.34;689102;28;44203;-63
2021/03/17 01:22:52;;;;;;;7.97;6.78;;;;;;;2.72;65.81;101437.13;689990;28;23481;-61
2021/03/17 01:23:13;;;;;;;7.30;6.60;;;;;;;2.73;65.93;101444.13;690397;28;23407;-62
2021/03/17 01:23:35;;;;;;;7.95;6.60;;;;;;;2.73;66.07;101444.13;687414;28;8589;-62
2021/03/17 01:23:56;;;;;;;8.60;6.85;;;;;;;2.70;65.96;101439.88;687957;28;1280;-62
2021/03/17 01:24:17;;;;;;;8.77;6.47;;;;;;;2.72;65.91;101447.78;688052;28;7049;-62
2021/03/17 01:24:38;;;;;;;7.43;6.30;;;;;;;2.69;66.15;101440.84;686799;28;22384;-62
2021/03/17 01:24:59;;;;;;;7.72;6.07;;;;;;;2.68;66.11;101440.00;687307;28;22429;-62
2021/03/17 01:25:30;;;;;;;8.73;6.50;;;;;;;2.67;66.11;101435.63;687955;28;1716;-62
2021/03/17 01:25:51;;;;;;;8.13;6.50;;;;;;;2.69;66.19;101438.16;682640;28;137804;-62
2021/03/17 01:26:12;;;;;;;8.50;6.97;;;;;;;2.68;66.27;101440.00;688219;28;22203;-60
2021/03/17 01:26:33;;;;;;;9.13;7.00;;;;;;;2.70;66.18;101442.56;687370;28;22371;-63
2021/03/17 01:26:54;;;;;;;8.30;6.60;;;;;;;2.72;66.38;101439.78;687328;28;17259;-61
2021/03/17 01:27:15;;;;;;;7.80;6.40;;;;;;;2.71;66.57;101438.91;687552;28;23327;-62
2021/03/17 01:27:37;;;;;;;8.55;6.88;;;;;;;2.72;66.35;101443.28;686802;28;23410;-61
2021/03/17 01:28:02;;;;;;;9.30;6.80;;;;;;;2.72;66.51;101434.44;686247;28;44357;-60
2021/03/17 01:28:24;;;;;;;8.55;6.38;;;;;;;2.74;66.41;101440.50;684316;28;115923;-62
2021/03/17 01:28:45;;;;;;;8.40;7.07;;;;;;;2.75;66.49;101444.91;687484;28;48266;-62
2021/03/17 01:29:06;;;;;;;8.15;6.60;;;;;;;2.74;66.33;101444.03;687440;28;22415;-62
2021/03/17 01:29:27;;;;;;;7.70;6.68;;;;;;;2.74;66.47;101433.34;687476;28;21957;-62
2021/03/17 01:29:48;;;;;;;6.97;6.15;;;;;;;2.76;66.46;101439.47;687179;28;24363;-61
2021/03/17 01:30:11;;;;;;;8.80;6.70;;;;;;;2.77;66.53;101442.97;686678;28;23538;-62
2021/03/17 01:30:38;;;;;;;9.65;6.57;;;;;;;2.79;66.55;101449.91;685648;28;64050;-61
2021/03/17 01:31:00;;;;;;;7.68;6.40;;;;;;;2.79;66.54;101435.69;683211;28;135980;-63
2021/03/17 01:31:21;;;;;;;8.82;7.03;;;;;;;2.79;66.67;101436.56;688116;28;1134;-61
2021/03/17 01:31:42;;;;;;;8.43;6.50;;;;;;;2.81;66.62;101437.31;687599;28;14685;-60
2021/03/17 01:32:04;;;;;;;8.18;6.30;;;;;;;2.82;66.52;101443.47;687050;28;22334;-63
2021/03/17 01:32:25;;;;;;;8.82;6.85;;;;;;;2.82;66.55;101436.34;685991;28;44495;-63
2021/03/17 01:32:46;;;;;;;9.85;6.85;;;;;;;2.82;66.41;101439.03;687805;28;1005;-60
2021/03/17 01:33:09;;;;;;;8.27;6.80;;;;;;;2.82;66.20;101436.34;688364;28;21518;-62
2021/03/17 01:33:30;;;;;;;8.52;7.00;;;;;;;2.80;66.29;101434.75;685670;28;59355;-61
2021/03/17 01:33:51;;;;;;;9.63;7.00;;;;;;;2.79;66.20;101430.38;687501;28;16667;-61
2021/03/17 01:34:12;;;;;;;9.05;6.97;;;;;;;2.84;66.19;101438.91;687117;28;23495;-60
2021/03/17 01:34:34;;;;;;;7.53;6.50;;;;;;;2.82;66.27;101441.69;687337;28;13630;-63
2021/03/17 01:34:55;;;;;;;7.75;6.38;;;;;;;2.80;66.02;101430.25;686499;28;45055;-60
2021/03/17 01:35:16;;;;;;;7.88;6.35;;;;;;;2.83;66.05;101440.72;686794;28;23452;-59
2021/03/17 01:35:39;;;;;;;8.63;6.90;;;;;;;2.83;66.05;101440.72;687530;28;21501;-62
2021/03/17 01:36:00;;;;;;;8.77;6.75;;;;;;;2.82;66.18;101440.81;685746;28;67368;-62
2021/03/17 01:36:21;;;;;;;9.07;6.50;;;;;;;2.83;65.91;101434.53;687226;28;22098;-62
2021/03/17 01:36:42;;;;;;;8.18;6.63;;;;;;;2.82;66.18;101446.16;687416;28;22166;-62
2021/03/17 01:37:04;;;;;;;8.30;6.60;;;;;;;2.82;66.02;101440.81;687654;28;8264;-62
2021/03/17 01:37:27;;;;;;;9.02;6.50;;;;;;;2.81;66.02;101442.63;688097;28;1388;-61
2021/03/17 01:37:48;;;;;;;9.45;6.57;;;;;;;2.81;65.84;101447.13;688138;28;946;-62
2021/03/17 01:38:12;;;;;;;8.85;6.40;;;;;;;2.80;65.88;101440.94;688638;28;14795;-62
2021/03/17 01:38:33;;;;;;;7.32;6.20;;;;;;;2.80;66.06;101446.25;687575;28;13623;-61
2021/03/17 01:38:54;;;;;;;7.18;6.05;;;;;;;2.82;66.06;101446.16;687680;28;1564;-60
2021/03/17 01:39:16;;;;;;;8.35;6.68;;;;;;;2.80;66.01;101440.09;686411;28;45256;-62
2021/03/17 01:39:37;;;;;;;8.68;6.78;;;;;;;2.76;66.09;101438.59;686680;28;22408;-60
2021/03/17 01:39:58;;;;;;;7.88;6.20;;;;;;;2.81;66.15;101441.81;687646;28;863;-61
2021/03/17 01:40:22;;;;;;;9.05;6.30;;;;;;;2.80;65.96;101448.94;686804;28;16718;-61
2021/03/17 01:40:44;;;;;;;7.68;6.78;;;;;;;2.81;66.02;101444.47;685469;28;91175;-61
2021/03/17 01:41:06;;;;;;;7.22;6.25;;;;;;;2.77;65.83;101438.47;686420;28;46787;-62
2021/03/17 01:41:27;;;;;;;8.02;6.60;;;;;;;2.80;65.91;101445.41;686693;28;46311;-62
2021/03/17 01:41:48;;;;;;;7.07;6.18;;;;;;;2.79;65.97;101441.91;687387;28;14923;-62
2021/03/17 01:42:14;;;;;;;6.65;5.95;;;;;;;2.81;66.11;101441.81;685782;28;61795;-62
2021/03/17 01:42:35;;;;;;;6.30;5.50;;;;;;;2.82;66.08;101443.47;687978;28;4706;-62
2021/03/17 01:42:57;;;;;;;6.72;5.90;;;;;;;2.81;66.17;101445.31;687371;28;21370;-62
2021/03/17 01:43:18;;;;;;;7.03;6.32;;;;;;;2.81;66.06;101450.66;686786;28;43777;-62
2021/03/17 01:43:40;;;;;;;7.68;6.50;;;;;;;2.81;66.10;101445.31;689012;28;1222;-62
2021/03/17 01:44:05;;;;;;;7.78;6.63;;;;;;;2.81;66.05;101452.47;686743;28;38171;-62
2021/03/17 01:44:30;;;;;;;7.18;6.43;;;;;;;2.79;66.13;101441.03;686640;28;37482;-63
2021/03/17 01:44:51;;;;;;;7.15;6.28;;;;;;;2.81;66.09;101447.97;686871;28;23437;-63
2021/03/17 01:45:14;;;;;;;7.13;6.28;;;;;;;2.79;66.00;101444.56;687628;28;15460;-63
2021/03/17 01:45:36;;;;;;;6.65;5.90;;;;;;;2.80;66.11;101448.09;684485;28;93326;-63
2021/03/17 01:45:57;;;;;;;7.45;5.97;;;;;;;2.79;66.05;101443.69;685886;28;23963;-63
2021/03/17 01:46:19;;;;;;;8.38;6.40;;;;;;;2.77;66.15;101438.47;688592;28;16128;-63
2021/03/17 01:46:43;;;;;;;8.55;6.70;;;;;;;2.79;66.22;101449.03;686308;28;38064;-62
2021/03/17 01:47:04;;;;;;;8.02;6.63;;;;;;;2.79;66.31;101441.91;687387;28;21445;-62
2021/03/17 01:47:26;;;;;;;8.52;6.68;;;;;;;2.76;66.29;101442.13;686741;28;21520;-62
2021/03/17 01:47:48;;;;;;;8.82;6.90;;;;;;;2.80;66.32;101443.59;686085;28;46607;-62
2021/03/17 01:48:09;;;;;;;8.68;6.88;;;;;;;2.79;66.42;101439.25;686257;28;46286;-62
2021/03/17 01:48:37;;;;;;;7.32;6.15;;;;;;;2.80;66.40;101440.09;687497;28;14796;-62
2021/03/17 01:49:04;;;;;;;8.40;6.75;;;;;;;2.80;66.35;101440.94;685914;28;61094;-62
2021/03/17 01:49:25;;;;;;;8.48;6.80;;;;;;;2.81;66.43;101436.47;688119;28;958;-63
2021/03/17 01:49:46;;;;;;;8.82;6.63;;;;;;;2.80;66.55;101445.41;686825;28;23436;-62
2021/03/17 01:50:10;;;;;;;8.90;6.53;;;;;;;2.78;66.35;101439.34;688076;28;1328;-62
2021/03/17 01:50:33;;;;;;;8.55;6.75;;;;;;;2.78;66.41;101444.69;685763;28;68120;-63
2021/03/17 01:50:56;;;;;;;11.23;7.30;;;;;;;2.78;66.41;101442.84;685650;28;63683;-63
2021/03/17 01:51:17;;;;;;;8.55;6.32;;;;;;;2.79;66.45;101441.91;686663;28;70329;-61
2021/03/17 01:51:40;;;;;;;8.07;6.70;;;;;;;2.78;66.34;101450.88;687606;28;1019;-63
2021/03/17 01:52:01;;;;;;;8.55;6.70;;;;;;;2.78;66.41;101442.84;688070;28;2276;-63
2021/03/17 01:52:22;;;;;;;7.32;6.50;;;;;;;2.75;66.55;101443.06;688167;28;1024;-63
2021/03/17 01:52:44;;;;;;;7.57;6.70;;;;;;;2.78;66.42;101442.00;688134;28;46489;-61
2021/03/17 01:53:08;;;;;;;9.13;6.80;;;;;;;2.77;66.40;101441.13;690481;28;1767;-63
2021/03/17 01:53:36;;;;;;;8.40;6.38;;;;;;;2.76;66.66;101450.13;688773;28;42228;-64
2021/03/17 01:53:59;;;;;;;7.22;6.30;;;;;;;2.79;66.61;101449.03;686364;28;119000;-63
2021/03/17 01:54:20;;;;;;;7.28;6.35;;;;;;;2.78;66.44;101434.84;688138;28;66316;-63
2021/03/17 01:54:41;;;;;;;8.70;6.68;;;;;;;2.80;66.53;101453.41;687287;28;21509;-63
2021/03/17 01:55:04;;;;;;;8.82;7.10;;;;;;;2.81;66.59;101453.31;687235;28;22401;-63
2021/03/17 01:55:25;;;;;;;8.75;7.38;;;;;;;2.81;66.45;101455.13;685762;28;67516;-62
2021/03/17 01:55:47;;;;;;;9.32;7.07;;;;;;;2.78;66.51;101452.69;685894;28;46256;-63
2021/03/17 01:56:08;;;;;;;9.35;6.78;;;;;;;2.81;66.45;101449.81;686727;28;22280;-63
2021/03/17 01:56:30;;;;;;;8.25;6.43;;;;;;;2.82;66.49;101449.69;687645;28;1033;-62
2021/03/17 01:56:51;;;;;;;8.43;6.78;;;;;;;2.82;66.54;101452.38;687595;28;45832;-63
2021/03/17 01:57:13;;;;;;;7.10;6.30;;;;;;;2.80;66.50;101451.59;687457;28;18858;-63
2021/03/17 01:57:35;;;;;;;9.95;6.60;;;;;;;2.82;66.43;101446.16;687770;28;11031;-63
2021/03/17 01:57:57;;;;;;;8.10;6.97;;;;;;;2.81;66.34;101447.13;688011;28;1351;-63
2021/03/17 01:58:21;;;;;;;7.88;7.05;;;;;;;2.82;66.44;101448.81;687126;28;14978;-63
2021/03/17 01:58:43;;;;;;;7.25;6.55;;;;;;;2.81;66.35;101441.81;688040;28;983;-63
2021/03/17 01:59:06;;;;;;;7.75;6.70;;;;;;;2.83;66.26;101451.38;688555;28;887;-61
2021/03/17 01:59:28;;;;;;;7.95;6.80;;;;;;;2.83;66.47;101455.88;685518;28;69423;-62
2021/03/17 01:59:49;;;;;;;9.68;7.00;;;;;;;2.81;66.31;101445.31;687858;28;838;-63
2021/03/17 02:00:13;;;;;;;8.40;6.40;;;;;;;2.83;66.51;101450.53;687188;28;22497;-63
2021/03/17 02:00:39;;;;;;;8.60;6.60;;;;;;;2.82;66.33;101449.69;686073;28;60899;-63
2021/03/17 02:01:01;;;;;;;9.32;6.65;;;;;;;2.82;66.29;101447.03;686839;28;29862;-62
2021/03/17 02:01:22;;;;;;;9.55;7.32;;;;;;;2.81;66.10;101445.31;686376;28;46689;-62
2021/03/17 02:01:44;;;;;;;7.88;7.00;;;;;;;2.82;66.14;101448.81;687298;28;46334;-61
2021/03/17 02:02:05;;;;;;;9.43;6.88;;;;;;;2.82;66.01;101446.16;686479;28;41501;-63
2021/03/17 02:02:26;;;;;;;9.43;6.85;;;;;;;2.81;66.05;101444.47;686868;28;22311;-63
2021/03/17 02:02:49;;;;;;;7.43;6.18;;;;;;;2.81;65.92;101452.47;687361;28;10988;-63
2021/03/17 02:03:11;;;;;;;8.95;7.10;;;;;;;2.80;65.90;101450.75;685813;28;69255;-63
2021/03/17 02:03:32;;;;;;;8.02;6.97;;;;;;;2.79;65.95;101447.25;686774;28;22242;-63
2021/03/17 02:03:53;;;;;;;10.07;6.90;;;;;;;2.77;66.08;101443.81;686289;28;46369;-62
2021/03/17 02:04:14;;;;;;;11.65;7.05;;;;;;;2.79;65.94;101446.38;688238;28;22338;-63
2021/03/17 02:04:35;;;;;;;7.53;6.68;;;;;;;2.79;66.04;101451.69;686252;28;22375;-63
2021/03/17 02:04:57;;;;;;;7.75;6.60;;;;;;;2.80;66.19;101450.75;687029;28;23526;-62
2021/03/17 02:05:20;;;;;;;8.27;6.90;;;;;;;2.79;66.07;101447.25;687118;28;23592;-63
2021/03/17 02:05:43;;;;;;;7.97;6.53;;;;;;;2.78;66.03;101450.88;684087;28;92300;-62
2021/03/17 02:06:05;;;;;;;8.90;6.72;;;;;;;2.78;65.97;101458.03;685622;28;70210;-62
2021/03/17 02:06:26;;;;;;;9.57;6.78;;;;;;;2.78;66.01;101450.88;686939;28;24447;-62
2021/03/17 02:06:49;;;;;;;8.80;6.63;;;;;;;2.78;66.19;101450.88;687353;28;46904;-63
2021/03/17 02:07:11;;;;;;;8.13;6.53;;;;;;;2.80;66.22;101446.25;686512;28;46552;-63
2021/03/17 02:07:32;;;;;;;7.68;6.53;;;;;;;2.81;66.04;101452.47;685908;28;46421;-63